x

West Gulf - 207 Nm East Of Brownsville, Tx (42002) Wave Buoy

6:50am - Wed 23rd Jul 2014 All times are CDT. -5 hours from GMT.

  • Sig Wave height 1.0ft
  • Swell Direction
  • Peak Period 5s
  • Average Period 4s
  • Wind
    7mph
  • Sea Temp 85°f
  • Air Temp 83°f
  • Sea Pressure 1016.7mb
  • West Gulf - 207 Nm East Of Brownsville, Tx
  • West Gulf - 207 Nm East Of Brownsville, Tx

More Historic Weather Station data

Upgrade to MSW Pro to gain access to the past 30 days of data for over 8000 Wavebouys and Weather Stations around the globe.

Join Pro

Comparision Forecast

View Surf forecast
   
Wed 07/23 6:50am 1ft 5s 4s 7
mph
1016.7mb 85f 83f
5:50am 1ft 4s 4s 7 9 mph 1016.3mb 85f 83f
4:50am 1.3ft 5s 4s 7 9 mph 1016mb 85f 83f
3:50am 1ft 5s 4s 9 11 mph 1016.2mb 85f 83f
2:50am 1.3ft 5s 4s 9
mph
1016.4mb 86f 84f
1:50am 1.3ft 5s 4s 9 11 mph 1016.2mb 86f 84f
12:50am 1.3ft 5s 4s 9 11 mph 1016.5mb 86f 84f
Tue 07/22 11:50pm 1.3ft 5s 4s 9
mph
1016.8mb 86f 83f
10:50pm 1.3ft 5s 4s 4 7 mph 1016.9mb 86f 84f
9:50pm 1.3ft 5s 4s 2 4 mph 1016.7mb 86f 84f
8:50pm 1.6ft 5s 4s 2 4 mph 1016.5mb 86f 84f
7:50pm 1.3ft 5s 4s  -  2 mph 1016.3mb 87f 84f
6:50pm 1.3ft 5s 4s  -  2 mph 1016.2mb 88f 85f
5:50pm 1.6ft 5s 4s  -  mph 1016.3mb 88f 85f
4:50pm 1.6ft 6s 4s 4 7 mph 1016.2mb 88f 85f
3:50pm 1.6ft 6s 4s 4 7 mph 1016.4mb 87f 84f
2:50pm 1.6ft 6s 4s 4 7 mph 1016.7mb 87f 84f
1:50pm 2ft 6s 4s 4
mph
1017.4mb 87f 84f
12:50pm 2ft 6s 4s 4 7 mph 1017.6mb 85f 84f
11:50am 2ft 6s 4s 7
mph
1017.8mb 85f 84f
10:50am 2ft 6s 4s 4
mph
1017.8mb 85f 84f
9:50am 2.5ft 6s 4s  -  mph 1017.7mb 85f 85f
8:50am 2.5ft 6s 4s 7
mph
1017.2mb 84f 84f
7:50am 2ft 5s 4s 7 9 mph 1016.9mb 84f 83f
6:50am 2ft 5s 4s 7 9 mph 1016.3mb 84f 83f
5:50am 2ft 5s 4s 9 11 mph 1016mb 84f 83f
4:50am 2ft 5s 4s 11 13 mph 1015.3mb 85f 83f
3:50am 2ft 5s 4s 13 16 mph 1015.5mb 85f 83f
2:50am 2ft 6s 4s 11 13 mph 1015.5mb 85f 84f
1:50am 2ft 5s 4s 11 13 mph 1015.8mb 85f 84f
12:50am 1.6ft 5s 4s 9 11 mph 1016.2mb 85f 84f
Mon 07/21 11:50pm 1.6ft 5s 4s 11 13 mph 1016.4mb 85f 84f
10:50pm 1.6ft 5s 4s 9 11 mph 1016.3mb 85f 84f
9:50pm 1.6ft 5s 4s 9
mph
1016mb 85f 84f
8:50pm 1.6ft 6s 4s 7 9 mph 1015.8mb 85f 84f
7:50pm 1.6ft 6s 4s 9
mph
1015.7mb 85f 84f
6:50pm 2ft 6s 4s 9
mph
1015.6mb 85f 85f
4:50pm 2.5ft 6s 4s 9 11 mph 1016.2mb 86f 84f
3:50pm 2ft 6s 4s 9
mph
1016.4mb 86f 84f
2:50pm 2ft 6s 4s 9 13 mph 1016.6mb 85f 84f
1:50pm 2.5ft 6s 4s 9 11 mph 1017.2mb 85f 84f
12:50pm 2.5ft 6s 5s 9 11 mph 1017.5mb 85f 84f
11:50am 2.5ft 6s 5s 9 11 mph 1017.8mb 84f 84f
10:50am 3ft 7s 5s 9 11 mph 1017.8mb 84f 84f
9:50am 3ft 7s 5s 9
mph
1017.6mb 84f 83f
8:50am 3ft 6s 5s 7
mph
1017.4mb 84f 84f
7:50am 3ft 7s 4s 9
mph
1016.5mb 83f 84f
6:50am 3ft 7s 4s 9
mph
1016.3mb 83f 83f
5:50am 3.5ft 6s 5s 11 13 mph 1015.7mb 83f 83f
4:50am 3.5ft 7s 4s 11 13 mph 1015.2mb 84f 83f
3:50am 3.5ft 7s 4s 13 16 mph 1014.9mb 84f 83f
2:50am 3ft 6s 4s 16 18 mph 1014.7mb 84f 83f
1:50am 3ft 6s 4s 16 18 mph 1014.8mb 84f 84f
12:50am 2.5ft 6s 4s 16 20 mph 1014.9mb 84f 84f
Sun 07/20 11:50pm 2.5ft 6s 4s 13 16 mph 1015.2mb 84f 84f
10:50pm 2.5ft 6s 4s 13 16 mph 1015.3mb 84f 84f
9:50pm 2.5ft 6s 4s 13 16 mph 1015.2mb 84f 84f
8:50pm 2.5ft 6s 5s 13 16 mph 1014.9mb 84f 84f
7:50pm 3ft 6s 5s 13 16 mph 1014.9mb 85f 84f
6:50pm 3ft 6s 5s 13
mph
1014.8mb 85f 84f
5:50pm 3ft 6s 5s 9 11 mph 1014.8mb 85f 84f
4:50pm 3ft 6s 5s 9 11 mph 1015.1mb 85f 84f
3:50pm 3.5ft 7s 5s 7 9 mph 1015.3mb 85f 84f
2:50pm 3.5ft 7s 5s 7
mph
1015.9mb 85f 84f
1:50pm 3ft 7s 5s 7 9 mph 1016.3mb 84f 84f
12:50pm 2.5ft 7s 4s 9 11 mph 1016.5mb 84f 84f
11:50am 3ft 6s 4s 11 13 mph 1016.6mb 84f 84f
10:50am 3ft 6s 4s 16 18 mph 1016.6mb 84f 84f
9:50am 3ft 7s 4s 16 18 mph 1016.2mb 83f 83f
8:50am 3.5ft 7s 5s 16 18 mph 1016mb 84f 83f
7:50am 3.5ft 7s 5s 11 13 mph 1015.9mb 84f 83f
6:50am 3.5ft 7s 5s 11 13 mph 1015.3mb 84f 83f
5:50am 3.5ft 8s 5s 11 16 mph 1014.9mb 84f 83f
4:50am 4ft 7s 5s 11 13 mph 1015.1mb 85f 83f
3:50am 4ft 7s 5s 16 18 mph 1014.9mb 85f 83f
2:50am 4.5ft 8s 5s 16 20 mph 1014.8mb 85f 84f
1:50am 4ft 8s 5s 18 20 mph 1015.1mb 85f 84f
12:50am 4ft 7s 5s 18 20 mph 1015.1mb 85f 84f
Sat 07/19 11:50pm 4ft 8s 5s 18 20 mph 1015.1mb 85f 84f
10:50pm 4.5ft 7s 5s 18 20 mph 1015mb 85f 84f
9:50pm 3.5ft 7s 5s 18 20 mph 1014.8mb 85f 84f
8:50pm 3.5ft 6s 5s 18 20 mph 1014.6mb 85f 84f
7:50pm 3.5ft 7s 5s 16 18 mph 1014.2mb 85f 85f
6:50pm 3ft 7s 5s 11 13 mph 1013.9mb 85f 85f
5:50pm 3.5ft 7s 5s 9 11 mph 1013.7mb 85f 85f
4:50pm 3.5ft 7s 5s 9 11 mph 1014.2mb 85f 85f
3:50pm 3.5ft 7s 5s 11
mph
1014.5mb 85f 85f
2:50pm 3.5ft 7s 5s 9 11 mph 1015.1mb 85f 85f
1:50pm 3.5ft 7s 5s 7
mph
1015.4mb 85f 85f